Time;durP1;ratioP1;P1;durP2;ratioP2;P2;SDS_P1;SDS_P2;PMS_P1;PMS_P2;Temp;Humidity;BMP_temperature;BMP_pressure;BME280_temperature;BME280_humidity;BME280_pressure;Samples;Min_cycle;Max_cycle;Signal;HPM_P1;HPM_P2
2022/05/26 00:00:39;;;;;;;;;;;;;;;;;;5092239;28;19916;-70
2022/05/26 00:03:24;;;;;;;;;;;;;;;;;;5092749;28;19916;-72
2022/05/26 00:06:10;;;;;;;;;;;;;;;;;;5093473;28;19959;-71
2022/05/26 00:08:55;;;;;;;;;;;;;;;;;;5097336;28;19920;-71
2022/05/26 00:11:40;;;;;;;;;;;;;;;;;;5091665;28;19916;-71
2022/05/26 00:14:26;;;;;;;;;;;;;;;;;;5091737;28;19916;-63
2022/05/26 00:17:12;;;;;;;;;;;;;;;;;;5102861;28;19922;-63
2022/05/26 00:19:58;;;;;;;;;;;;;;;;;;5112280;28;19926;-62
2022/05/26 00:22:44;;;;;;;;;;;;;;;;;;5112218;28;19923;-63
2022/05/26 00:25:29;;;;;;;;;;;;;;;;;;5112143;28;19915;-64
2022/05/26 00:28:14;;;;;;;;;;;;;;;;;;5112657;28;19916;-64
2022/05/26 00:31:00;;;;;;;;;;;;;;;;;;5112334;28;19911;-67
2022/05/26 00:33:45;;;;;;;;;;;;;;;;;;5112143;28;19946;-68
2022/05/26 00:36:43;;;;;;;;;;;;;;;;;;5112736;28;19915;-70
2022/05/26 00:39:28;;;;;;;;;;;;;;;;;;5118973;28;20172;-69
2022/05/26 00:42:14;;;;;;;;;;;;;;;;;;5112542;28;19916;-68
2022/05/26 00:44:59;;;;;;;;;;;;;;;;;;5108065;28;20239;-68
2022/05/26 00:47:45;;;;;;;;;;;;;;;;;;5057130;28;19912;-69
2022/05/26 00:50:30;;;;;;;;;;;;;;;;;;5071936;28;20011;-63
2022/05/26 00:53:16;;;;;;;;;;;;;;;;;;5072291;28;19943;-65
2022/05/26 00:56:01;;;;;;;;;;;;;;;;;;5056989;28;19923;-65
2022/05/26 00:58:47;;;;;;;;;;;;;;;;;;5072098;28;19927;-67
2022/05/26 01:01:32;;;;;;;;;;;;;;;;;;5071878;28;20316;-67
2022/05/26 01:04:18;;;;;;;;;;;;;;;;;;5072198;28;19912;-67
2022/05/26 01:07:03;;;;;;;;;;;;;;;;;;5086236;28;19985;-67
2022/05/26 01:09:49;;;;;;;;;;;;;;;;;;5056447;28;19917;-71
2022/05/26 01:12:34;;;;;;;;;;;;;;;;;;5063060;28;19916;-76
2022/05/26 01:15:20;;;;;;;;;;;;;;;;;;5075634;28;20027;-78
2022/05/26 01:18:05;;;;;;;;;;;;;;;;;;5076561;28;19938;-77
2022/05/26 01:20:50;;;;;;;;;;;;;;;;;;5091044;28;19916;-78
2022/05/26 01:23:36;;;;;;;;;;;;;;;;;;5093630;28;19923;-77
2022/05/26 01:26:21;;;;;;;;;;;;;;;;;;5080272;28;19961;-63
2022/05/26 01:29:07;;;;;;;;;;;;;;;;;;5095780;28;20384;-66
2022/05/26 01:31:53;;;;;;;;;;;;;;;;;;5079638;28;20358;-65
2022/05/26 01:34:38;;;;;;;;;;;;;;;;;;5094157;28;19970;-66
2022/05/26 01:37:24;;;;;;;;;;;;;;;;;;5094059;28;19926;-66
2022/05/26 01:40:09;;;;;;;;;;;;;;;;;;5094259;28;19916;-66
2022/05/26 01:42:55;;;;;;;;;;;;;;;;;;5099488;28;20107;-65
2022/05/26 01:45:40;;;;;;;;;;;;;;;;;;5096504;28;19947;-65
2022/05/26 01:48:26;;;;;;;;;;;;;;;;;;5095260;28;19917;-71
2022/05/26 01:51:11;;;;;;;;;;;;;;;;;;5095255;28;19998;-72
2022/05/26 01:53:57;;;;;;;;;;;;;;;;;;5095487;28;20381;-71
2022/05/26 01:56:43;;;;;;;;;;;;;;;;;;5079907;28;19920;-71
2022/05/26 01:59:28;;;;;;;;;;;;;;;;;;5094586;28;20274;-71
2022/05/26 02:02:14;;;;;;;;;;;;;;;;;;5079661;28;19920;-71
2022/05/26 02:04:59;;;;;;;;;;;;;;;;;;5094870;28;19915;-70
2022/05/26 02:07:45;;;;;;;;;;;;;;;;;;5094930;28;19919;-69
2022/05/26 02:10:30;;;;;;;;;;;;;;;;;;5094967;28;20044;-68
2022/05/26 02:13:15;;;;;;;;;;;;;;;;;;5095122;28;19916;-69
2022/05/26 02:16:01;;;;;;;;;;;;;;;;;;5107985;28;19949;-69
2022/05/26 02:18:46;;;;;;;;;;;;;;;;;;5114569;28;19916;-69
2022/05/26 02:21:32;;;;;;;;;;;;;;;;;;5114568;28;19924;-66
2022/05/26 02:24:17;;;;;;;;;;;;;;;;;;5115040;28;19980;-65
2022/05/26 02:27:03;;;;;;;;;;;;;;;;;;5100170;28;19969;-66
2022/05/26 02:29:51;;;;;;;;;;;;;;;;;;5114466;28;19937;-65
2022/05/26 02:32:37;;;;;;;;;;;;;;;;;;5114214;28;20394;-66
2022/05/26 02:35:23;;;;;;;;;;;;;;;;;;5113329;28;19923;-66
2022/05/26 02:38:08;;;;;;;;;;;;;;;;;;5113887;28;19964;-66
2022/05/26 02:40:54;;;;;;;;;;;;;;;;;;5114184;28;19916;-66
2022/05/26 02:43:40;;;;;;;;;;;;;;;;;;5114174;28;20351;-71
2022/05/26 02:46:25;;;;;;;;;;;;;;;;;;5088156;28;19928;-71
2022/05/26 02:49:11;;;;;;;;;;;;;;;;;;5098343;28;20271;-70
2022/05/26 02:51:56;;;;;;;;;;;;;;;;;;5078964;28;19912;-70
2022/05/26 02:54:42;;;;;;;;;;;;;;;;;;5094008;28;19999;-69
2022/05/26 02:57:27;;;;;;;;;;;;;;;;;;5092992;28;20370;-69
2022/05/26 03:00:13;;;;;;;;;;;;;;;;;;5093666;28;19924;-76
2022/05/26 03:02:58;;;;;;;;;;;;;;;;;;5093808;28;19912;-65
2022/05/26 03:05:44;;;;;;;;;;;;;;;;;;5077735;28;19916;-66
2022/05/26 03:08:30;;;;;;;;;;;;;;;;;;5078536;28;19915;-66
2022/05/26 03:11:15;;;;;;;;;;;;;;;;;;5092860;28;20351;-66
2022/05/26 03:14:01;;;;;;;;;;;;;;;;;;5093614;28;19974;-64
2022/05/26 03:16:46;;;;;;;;;;;;;;;;;;5105709;28;20278;-63
2022/05/26 03:19:32;;;;;;;;;;;;;;;;;;5120279;28;19977;-70
2022/05/26 03:22:17;;;;;;;;;;;;;;;;;;5113310;28;20362;-71
2022/05/26 03:25:03;;;;;;;;;;;;;;;;;;5113553;28;19926;-71
2022/05/26 03:27:48;;;;;;;;;;;;;;;;;;5113106;28;19997;-71
2022/05/26 03:30:34;;;;;;;;;;;;;;;;;;5113301;28;19912;-70
2022/05/26 03:33:19;;;;;;;;;;;;;;;;;;5113077;28;19916;-70
2022/05/26 03:42:13;;;;;;;;;;;;;;;;;;5112811;28;19961;-65
2022/05/26 03:44:58;;;;;;;;;;;;;;;;;;5110902;28;20215;-65
2022/05/26 03:47:44;;;;;;;;;;;;;;;;;;5092958;28;19916;-64
2022/05/26 03:50:29;;;;;;;;;;;;;;;;;;5095559;28;19961;-64
2022/05/26 03:53:15;;;;;;;;;;;;;;;;;;5096907;28;19985;-70
2022/05/26 03:56:00;;;;;;;;;;;;;;;;;;5092940;28;19930;-67
2022/05/26 03:58:46;;;;;;;;;;;;;;;;;;5092952;28;19920;-71
2022/05/26 04:01:31;;;;;;;;;;;;;;;;;;5092749;28;19916;-71
2022/05/26 04:04:17;;;;;;;;;;;;;;;;;;5077446;28;20318;-70
2022/05/26 04:07:02;;;;;;;;;;;;;;;;;;5091907;28;19916;-70
2022/05/26 04:09:48;;;;;;;;;;;;;;;;;;5092740;28;19985;-70
2022/05/26 04:12:33;;;;;;;;;;;;;;;;;;5092987;28;19916;-62
2022/05/26 04:15:19;;;;;;;;;;;;;;;;;;5092328;28;19956;-67
2022/05/26 04:18:04;;;;;;;;;;;;;;;;;;5077287;28;20028;-66
2022/05/26 04:20:50;;;;;;;;;;;;;;;;;;5091775;28;19916;-66
2022/05/26 04:23:35;;;;;;;;;;;;;;;;;;5098884;28;19912;-66
2022/05/26 04:26:20;;;;;;;;;;;;;;;;;;5091459;28;19995;-65
2022/05/26 04:29:13;;;;;;;;;;;;;;;;;;5091279;28;19970;-67
2022/05/26 04:31:59;;;;;;;;;;;;;;;;;;5090529;28;19970;-65
2022/05/26 04:34:48;;;;;;;;;;;;;;;;;;5091198;28;19923;-63
2022/05/26 04:37:33;;;;;;;;;;;;;;;;;;5090677;28;20335;-63
2022/05/26 04:40:19;;;;;;;;;;;;;;;;;;5091039;28;19922;-62
2022/05/26 04:43:04;;;;;;;;;;;;;;;;;;5091274;28;19908;-64
2022/05/26 04:45:50;;;;;;;;;;;;;;;;;;5090995;28;20015;-63
2022/05/26 04:48:35;;;;;;;;;;;;;;;;;;5091235;28;19916;-65
2022/05/26 04:51:21;;;;;;;;;;;;;;;;;;5092528;28;20267;-78
2022/05/26 04:54:06;;;;;;;;;;;;;;;;;;5093913;28;20339;-78
2022/05/26 04:56:52;;;;;;;;;;;;;;;;;;5097571;28;19920;-78
2022/05/26 04:59:37;;;;;;;;;;;;;;;;;;5096066;28;19920;-78
2022/05/26 05:02:23;;;;;;;;;;;;;;;;;;5096439;28;19916;-78
2022/05/26 05:05:09;;;;;;;;;;;;;;;;;;5096059;28;19919;-79
2022/05/26 05:07:54;;;;;;;;;;;;;;;;;;5094881;28;20400;-66
2022/05/26 05:10:40;;;;;;;;;;;;;;;;;;5096188;28;19965;-68
2022/05/26 05:13:25;;;;;;;;;;;;;;;;;;5095107;28;20021;-69
2022/05/26 05:16:11;;;;;;;;;;;;;;;;;;5101536;28;19916;-75
2022/05/26 05:18:56;;;;;;;;;;;;;;;;;;5112207;28;19971;-60
2022/05/26 05:21:41;;;;;;;;;;;;;;;;;;5091287;28;20401;-61
2022/05/26 05:24:27;;;;;;;;;;;;;;;;;;5079488;28;20006;-61
2022/05/26 05:27:12;;;;;;;;;;;;;;;;;;5099536;28;19916;-69
2022/05/26 05:29:58;;;;;;;;;;;;;;;;;;5094327;28;19984;-58
2022/05/26 05:32:43;;;;;;;;;;;;;;;;;;5091391;28;20008;-59
2022/05/26 05:35:29;;;;;;;;;;;;;;;;;;5093258;28;20291;-58
2022/05/26 05:38:14;;;;;;;;;;;;;;;;;;5093243;28;19921;-57
2022/05/26 05:41:00;;;;;;;;;;;;;;;;;;5094098;28;19916;-58
2022/05/26 05:43:45;;;;;;;;;;;;;;;;;;5079928;28;20069;-70
2022/05/26 05:46:34;;;;;;;;;;;;;;;;;;5093952;28;19916;-62
2022/05/26 05:49:19;;;;;;;;;;;;;;;;;;5092992;28;20050;-68
2022/05/26 05:52:05;;;;;;;;;;;;;;;;;;5092878;28;19916;-71
2022/05/26 05:54:50;;;;;;;;;;;;;;;;;;5076300;28;19920;-64
2022/05/26 05:57:36;;;;;;;;;;;;;;;;;;5093109;28;19927;-65
2022/05/26 06:00:21;;;;;;;;;;;;;;;;;;5086452;28;19916;-66
2022/05/26 06:03:06;;;;;;;;;;;;;;;;;;5093211;28;20053;-66
2022/05/26 06:05:52;;;;;;;;;;;;;;;;;;5090295;28;20390;-70
2022/05/26 06:08:37;;;;;;;;;;;;;;;;;;5092391;28;19917;-69
2022/05/26 06:11:23;;;;;;;;;;;;;;;;;;5093088;28;20324;-69
2022/05/26 06:14:08;;;;;;;;;;;;;;;;;;5078876;28;19916;-70
2022/05/26 06:16:54;;;;;;;;;;;;;;;;;;5090910;28;20286;-69
2022/05/26 06:19:39;;;;;;;;;;;;;;;;;;5093113;28;19912;-69
2022/05/26 06:22:25;;;;;;;;;;;;;;;;;;5092728;28;19916;-54
2022/05/26 06:25:10;;;;;;;;;;;;;;;;;;5092872;28;19946;-65
2022/05/26 06:31:00;;;;;;;;;;;;;;;;;;5099208;28;19908;-68
2022/05/26 06:39:54;;;;;;;;;;;;;;;;;;5093352;28;19927;-59
2022/05/26 06:42:39;;;;;;;;;;;;;;;;;;5093003;28;20313;-68
2022/05/26 06:45:25;;;;;;;;;;;;;;;;;;5093168;28;19916;-68
2022/05/26 06:48:10;;;;;;;;;;;;;;;;;;5094308;28;19923;-67
2022/05/26 06:50:56;;;;;;;;;;;;;;;;;;5079196;28;19916;-68
2022/05/26 06:53:41;;;;;;;;;;;;;;;;;;5094280;28;19961;-69
2022/05/26 06:56:26;;;;;;;;;;;;;;;;;;5093793;28;20308;-66
2022/05/26 06:59:12;;;;;;;;;;;;;;;;;;5089870;28;19975;-68
2022/05/26 07:01:57;;;;;;;;;;;;;;;;;;5093815;28;19923;-60
2022/05/26 07:04:43;;;;;;;;;;;;;;;;;;5098514;28;19912;-59
2022/05/26 07:07:28;;;;;;;;;;;;;;;;;;5093070;28;19922;-59
2022/05/26 07:10:14;;;;;;;;;;;;;;;;;;5092849;28;19927;-59
2022/05/26 07:12:59;;;;;;;;;;;;;;;;;;5089594;28;19920;-59
2022/05/26 07:15:45;;;;;;;;;;;;;;;;;;5097093;28;20312;-68
2022/05/26 07:18:30;;;;;;;;;;;;;;;;;;5099378;28;20012;-69
2022/05/26 07:21:16;;;;;;;;;;;;;;;;;;5091911;28;19932;-69
2022/05/26 07:24:01;;;;;;;;;;;;;;;;;;5092127;28;19916;-71
2022/05/26 07:26:47;;;;;;;;;;;;;;;;;;5092644;28;20032;-70
2022/05/26 07:29:32;;;;;;;;;;;;;;;;;;5092310;28;20044;-70
2022/05/26 07:32:18;;;;;;;;;;;;;;;;;;5078061;28;19916;-69
2022/05/26 07:35:03;;;;;;;;;;;;;;;;;;5083538;28;19975;-73
2022/05/26 07:43:57;;;;;;;;;;;;;;;;;;5092500;28;19916;-73
2022/05/26 07:46:42;;;;;;;;;;;;;;;;;;5077846;28;19959;-73
2022/05/26 07:49:28;;;;;;;;;;;;;;;;;;5093107;28;20370;-73
2022/05/26 07:52:14;;;;;;;;;;;;;;;;;;5092974;28;19912;-73
2022/05/26 07:55:00;;;;;;;;;;;;;;;;;;5091899;28;19951;-63
2022/05/26 07:57:45;;;;;;;;;;;;;;;;;;5077770;28;19926;-76
2022/05/26 08:00:33;;;;;;;;;;;;;;;;;;5092686;28;20205;-75
2022/05/26 08:03:18;;;;;;;;;;;;;;;;;;5077816;28;19920;-74
2022/05/26 08:06:03;;;;;;;;;;;;;;;;;;5094452;28;19916;-75
2022/05/26 08:08:49;;;;;;;;;;;;;;;;;;5097792;28;20294;-75
2022/05/26 08:11:34;;;;;;;;;;;;;;;;;;5092910;28;20262;-70
2022/05/26 08:14:20;;;;;;;;;;;;;;;;;;5092931;28;19969;-65
2022/05/26 08:17:05;;;;;;;;;;;;;;;;;;5107149;28;19915;-66
2022/05/26 08:19:51;;;;;;;;;;;;;;;;;;5112443;28;20342;-67
2022/05/26 08:22:36;;;;;;;;;;;;;;;;;;5112364;28;20019;-66
2022/05/26 08:25:22;;;;;;;;;;;;;;;;;;5112254;28;20317;-65
2022/05/26 08:28:08;;;;;;;;;;;;;;;;;;5112455;28;20365;-66
2022/05/26 08:30:53;;;;;;;;;;;;;;;;;;5112583;28;19915;-71
2022/05/26 08:33:39;;;;;;;;;;;;;;;;;;5111548;28;19915;-74
2022/05/26 08:36:24;;;;;;;;;;;;;;;;;;5112395;28;19916;-73
2022/05/26 08:39:10;;;;;;;;;;;;;;;;;;5118320;28;19912;-70
2022/05/26 08:41:55;;;;;;;;;;;;;;;;;;5112684;28;20437;-72
2022/05/26 08:44:41;;;;;;;;;;;;;;;;;;5112262;28;20010;-73
2022/05/26 08:47:26;;;;;;;;;;;;;;;;;;5071951;28;19917;-72
2022/05/26 08:50:13;;;;;;;;;;;;;;;;;;5070572;28;19917;-66
2022/05/26 08:52:58;;;;;;;;;;;;;;;;;;5069982;28;20012;-65
2022/05/26 08:55:44;;;;;;;;;;;;;;;;;;5070993;28;20342;-66
2022/05/26 08:58:29;;;;;;;;;;;;;;;;;;5070689;28;19927;-67
2022/05/26 09:01:15;;;;;;;;;;;;;;;;;;5072041;28;19955;-64
2022/05/26 09:04:01;;;;;;;;;;;;;;;;;;5072076;28;19919;-65
2022/05/26 09:13:15;;;;;;;;;;;;;;;;;;5032174;28;20052;-65
2022/05/26 09:16:00;;;;;;;;;;;;;;;;;;5087471;28;19939;-64
2022/05/26 09:18:46;;;;;;;;;;;;;;;;;;5111366;28;19920;-65
2022/05/26 09:21:31;;;;;;;;;;;;;;;;;;5097677;28;19923;-64
2022/05/26 09:24:17;;;;;;;;;;;;;;;;;;5111830;28;20274;-67
2022/05/26 09:27:02;;;;;;;;;;;;;;;;;;5111784;28;19943;-72
2022/05/26 09:29:48;;;;;;;;;;;;;;;;;;5111552;28;19969;-68
2022/05/26 09:32:33;;;;;;;;;;;;;;;;;;5097518;28;19915;-68
2022/05/26 09:35:19;;;;;;;;;;;;;;;;;;5111701;28;19912;-67
2022/05/26 09:38:06;;;;;;;;;;;;;;;;;;5111609;28;20334;-66
2022/05/26 09:40:52;;;;;;;;;;;;;;;;;;5111747;28;20010;-67
2022/05/26 09:43:38;;;;;;;;;;;;;;;;;;5120483;28;20124;-73
2022/05/26 09:46:23;;;;;;;;;;;;;;;;;;5101425;28;20018;-62
2022/05/26 09:49:11;;;;;;;;;;;;;;;;;;5095233;28;19934;-63
2022/05/26 09:51:57;;;;;;;;;;;;;;;;;;5094091;28;19923;-64
2022/05/26 09:54:42;;;;;;;;;;;;;;;;;;5095285;28;20372;-65
2022/05/26 09:57:28;;;;;;;;;;;;;;;;;;5094975;28;19920;-64
2022/05/26 10:00:13;;;;;;;;;;;;;;;;;;5094229;28;19915;-65
2022/05/26 10:02:59;;;;;;;;;;;;;;;;;;5095177;28;19922;-65
2022/05/26 10:05:45;;;;;;;;;;;;;;;;;;5095143;28;20000;-70
2022/05/26 10:08:31;;;;;;;;;;;;;;;;;;5093881;28;19916;-71
2022/05/26 10:11:16;;;;;;;;;;;;;;;;;;5095259;28;19956;-71
2022/05/26 10:14:02;;;;;;;;;;;;;;;;;;5096645;28;20209;-70
2022/05/26 10:16:48;;;;;;;;;;;;;;;;;;5084122;28;20321;-70
2022/05/26 10:19:33;;;;;;;;;;;;;;;;;;5093666;28;20290;-68
2022/05/26 10:22:19;;;;;;;;;;;;;;;;;;5093537;28;20293;-71
2022/05/26 10:25:05;;;;;;;;;;;;;;;;;;5093365;28;19912;-74
2022/05/26 10:27:50;;;;;;;;;;;;;;;;;;5093787;28;19916;-74
2022/05/26 10:30:36;;;;;;;;;;;;;;;;;;5093693;28;20335;-73
2022/05/26 10:33:21;;;;;;;;;;;;;;;;;;5093378;28;20007;-73
2022/05/26 10:36:07;;;;;;;;;;;;;;;;;;5093319;28;19951;-74
2022/05/26 10:38:52;;;;;;;;;;;;;;;;;;5093223;28;19946;-68
2022/05/26 10:41:38;;;;;;;;;;;;;;;;;;5093303;28;19941;-71
2022/05/26 10:44:24;;;;;;;;;;;;;;;;;;5093692;28;19916;-72
2022/05/26 10:47:09;;;;;;;;;;;;;;;;;;5079610;28;19912;-71
2022/05/26 10:49:55;;;;;;;;;;;;;;;;;;5072941;28;19912;-71
2022/05/26 10:52:40;;;;;;;;;;;;;;;;;;5058364;28;20381;-71
2022/05/26 10:55:26;;;;;;;;;;;;;;;;;;5071940;28;19919;-72
2022/05/26 10:58:11;;;;;;;;;;;;;;;;;;5073323;28;19927;-70
2022/05/26 11:00:56;;;;;;;;;;;;;;;;;;5057929;28;19955;-69
2022/05/26 11:03:42;;;;;;;;;;;;;;;;;;5073173;28;20363;-69
2022/05/26 11:06:27;;;;;;;;;;;;;;;;;;5072353;28;19923;-67
2022/05/26 11:09:13;;;;;;;;;;;;;;;;;;5072858;28;19928;-69
2022/05/26 11:11:58;;;;;;;;;;;;;;;;;;5072961;28;19976;-69
2022/05/26 11:17:49;;;;;;;;;;;;;;;;;;5072535;28;19947;-72
2022/05/26 11:20:35;;;;;;;;;;;;;;;;;;5078468;28;19916;-72
2022/05/26 11:23:20;;;;;;;;;;;;;;;;;;5072818;28;19912;-72
2022/05/26 11:26:05;;;;;;;;;;;;;;;;;;5071743;28;19964;-72
2022/05/26 11:28:51;;;;;;;;;;;;;;;;;;5072674;28;19916;-73
2022/05/26 11:37:45;;;;;;;;;;;;;;;;;;5073230;28;19916;-68
2022/05/26 11:40:30;;;;;;;;;;;;;;;;;;5072940;28;19923;-67
2022/05/26 11:43:16;;;;;;;;;;;;;;;;;;5072255;28;19916;-68
2022/05/26 11:46:01;;;;;;;;;;;;;;;;;;5082406;28;20278;-67
2022/05/26 11:48:47;;;;;;;;;;;;;;;;;;5093239;28;19920;-68
2022/05/26 11:51:39;;;;;;;;;;;;;;;;;;5100961;28;19957;-67
2022/05/26 11:54:25;;;;;;;;;;;;;;;;;;5077324;28;20363;-65
2022/05/26 11:57:10;;;;;;;;;;;;;;;;;;5091950;28;19918;-77
2022/05/26 11:59:56;;;;;;;;;;;;;;;;;;5077341;28;19916;-77
2022/05/26 12:02:42;;;;;;;;;;;;;;;;;;5077048;28;20251;-77
2022/05/26 12:05:27;;;;;;;;;;;;;;;;;;5092657;28;20367;-77
2022/05/26 12:08:12;;;;;;;;;;;;;;;;;;5077307;28;19955;-77
2022/05/26 12:10:58;;;;;;;;;;;;;;;;;;5077910;28;19977;-77
2022/05/26 12:13:44;;;;;;;;;;;;;;;;;;5092736;28;19916;-73
2022/05/26 12:16:29;;;;;;;;;;;;;;;;;;5077691;28;19916;-72
2022/05/26 12:19:15;;;;;;;;;;;;;;;;;;5091787;28;20412;-72
2022/05/26 12:22:00;;;;;;;;;;;;;;;;;;5093957;28;19922;-72
2022/05/26 12:24:46;;;;;;;;;;;;;;;;;;5097050;28;20385;-72
2022/05/26 12:27:31;;;;;;;;;;;;;;;;;;5078019;28;19966;-71
2022/05/26 12:30:17;;;;;;;;;;;;;;;;;;5091845;28;19939;-72
2022/05/26 12:33:02;;;;;;;;;;;;;;;;;;5092336;28;19920;-65
2022/05/26 12:35:47;;;;;;;;;;;;;;;;;;5091851;28;19959;-64
2022/05/26 12:38:33;;;;;;;;;;;;;;;;;;5091987;28;19985;-64
2022/05/26 12:41:18;;;;;;;;;;;;;;;;;;5091601;28;19923;-64
2022/05/26 12:44:04;;;;;;;;;;;;;;;;;;5091937;28;19999;-64
2022/05/26 12:46:50;;;;;;;;;;;;;;;;;;5091746;28;19970;-74
2022/05/26 12:49:36;;;;;;;;;;;;;;;;;;5091117;28;19916;-76
2022/05/26 12:52:21;;;;;;;;;;;;;;;;;;5092359;28;20362;-67
2022/05/26 12:55:06;;;;;;;;;;;;;;;;;;5098506;28;19912;-68
2022/05/26 12:57:52;;;;;;;;;;;;;;;;;;5092525;28;20023;-68
2022/05/26 13:00:37;;;;;;;;;;;;;;;;;;5092345;28;19961;-68
2022/05/26 13:03:23;;;;;;;;;;;;;;;;;;5092149;28;20295;-67
2022/05/26 13:06:08;;;;;;;;;;;;;;;;;;5091967;28;20347;-67
2022/05/26 13:08:54;;;;;;;;;;;;;;;;;;5092187;28;20350;-75
2022/05/26 13:11:39;;;;;;;;;;;;;;;;;;5092293;28;19916;-74
2022/05/26 13:14:28;;;;;;;;;;;;;;;;;;5092234;28;19938;-75
2022/05/26 13:17:13;;;;;;;;;;;;;;;;;;5106984;28;19911;-74
2022/05/26 13:19:59;;;;;;;;;;;;;;;;;;5115212;28;20327;-75
2022/05/26 13:22:45;;;;;;;;;;;;;;;;;;5115817;28;19995;-74
2022/05/26 13:25:31;;;;;;;;;;;;;;;;;;5115661;28;20290;-72
2022/05/26 13:28:16;;;;;;;;;;;;;;;;;;5122687;28;19915;-71
2022/05/26 13:34:06;;;;;;;;;;;;;;;;;;5115483;28;19922;-69
2022/05/26 13:36:51;;;;;;;;;;;;;;;;;;5115621;28;19916;-72
2022/05/26 13:39:37;;;;;;;;;;;;;;;;;;5115569;28;19919;-71
2022/05/26 13:42:22;;;;;;;;;;;;;;;;;;5115477;28;19915;-67
2022/05/26 13:45:08;;;;;;;;;;;;;;;;;;5112122;28;19959;-72
2022/05/26 13:47:53;;;;;;;;;;;;;;;;;;5095568;28;19920;-72
2022/05/26 13:50:38;;;;;;;;;;;;;;;;;;5095017;28;20355;-72
2022/05/26 13:53:25;;;;;;;;;;;;;;;;;;5080476;28;19916;-72
2022/05/26 13:56:10;;;;;;;;;;;;;;;;;;5094474;28;19962;-72
2022/05/26 13:58:56;;;;;;;;;;;;;;;;;;5101241;28;20007;-72
2022/05/26 14:01:41;;;;;;;;;;;;;;;;;;5096260;28;19922;-75
2022/05/26 14:04:27;;;;;;;;;;;;;;;;;;5079912;28;20081;-68
2022/05/26 14:07:12;;;;;;;;;;;;;;;;;;5095091;28;19920;-68
2022/05/26 14:09:57;;;;;;;;;;;;;;;;;;5095048;28;19916;-69
2022/05/26 14:12:43;;;;;;;;;;;;;;;;;;5095160;28;20306;-69
2022/05/26 14:15:29;;;;;;;;;;;;;;;;;;5096311;28;19923;-69
2022/05/26 14:18:14;;;;;;;;;;;;;;;;;;5114618;28;19920;-68
2022/05/26 14:21:00;;;;;;;;;;;;;;;;;;5100230;28;19976;-72
2022/05/26 14:23:46;;;;;;;;;;;;;;;;;;5114808;28;19916;-66
2022/05/26 14:26:31;;;;;;;;;;;;;;;;;;5114758;28;19965;-66
2022/05/26 14:29:16;;;;;;;;;;;;;;;;;;5114064;28;19912;-67
2022/05/26 14:32:02;;;;;;;;;;;;;;;;;;5107399;28;20258;-67
2022/05/26 14:34:48;;;;;;;;;;;;;;;;;;5114259;28;19915;-68
2022/05/26 14:37:33;;;;;;;;;;;;;;;;;;5114523;28;19920;-66
2022/05/26 14:40:18;;;;;;;;;;;;;;;;;;5114401;28;19961;-64
2022/05/26 14:43:04;;;;;;;;;;;;;;;;;;5099983;28;19923;-66
2022/05/26 14:45:49;;;;;;;;;;;;;;;;;;5105052;28;19977;-65
2022/05/26 14:48:35;;;;;;;;;;;;;;;;;;5094459;28;19951;-66
2022/05/26 14:51:21;;;;;;;;;;;;;;;;;;5092613;28;19984;-66
2022/05/26 14:57:10;;;;;;;;;;;;;;;;;;5094272;28;19917;-67
2022/05/26 14:59:56;;;;;;;;;;;;;;;;;;5094674;28;19982;-71
2022/05/26 15:02:41;;;;;;;;;;;;;;;;;;5099090;28;19912;-72
2022/05/26 15:05:27;;;;;;;;;;;;;;;;;;5095411;28;19916;-72
2022/05/26 15:08:12;;;;;;;;;;;;;;;;;;5094036;28;19920;-74
2022/05/26 15:10:58;;;;;;;;;;;;;;;;;;5078638;28;19924;-72
2022/05/26 15:13:43;;;;;;;;;;;;;;;;;;5093902;28;20327;-67
2022/05/26 15:16:28;;;;;;;;;;;;;;;;;;5104016;28;19916;-76
2022/05/26 15:19:14;;;;;;;;;;;;;;;;;;5113250;28;20056;-71
2022/05/26 15:21:59;;;;;;;;;;;;;;;;;;5113273;28;19915;-67
2022/05/26 15:24:45;;;;;;;;;;;;;;;;;;5113582;28;19916;-69
2022/05/26 15:27:30;;;;;;;;;;;;;;;;;;5113311;28;20358;-69
2022/05/26 15:30:16;;;;;;;;;;;;;;;;;;5113294;28;19931;-69
2022/05/26 15:33:01;;;;;;;;;;;;;;;;;;5113100;28;19965;-71
2022/05/26 15:35:47;;;;;;;;;;;;;;;;;;5121336;28;20066;-77
2022/05/26 15:38:32;;;;;;;;;;;;;;;;;;5112858;28;19920;-77
2022/05/26 15:41:18;;;;;;;;;;;;;;;;;;5113057;28;20310;-76
2022/05/26 15:44:03;;;;;;;;;;;;;;;;;;5098819;28;19951;-76
2022/05/26 15:46:49;;;;;;;;;;;;;;;;;;5081406;28;19916;-76
2022/05/26 15:49:34;;;;;;;;;;;;;;;;;;5091769;28;20251;-76
2022/05/26 15:52:20;;;;;;;;;;;;;;;;;;5093661;28;19923;-68
2022/05/26 15:55:05;;;;;;;;;;;;;;;;;;5092575;28;19916;-76
2022/05/26 15:57:51;;;;;;;;;;;;;;;;;;5076936;28;19967;-76
2022/05/26 16:00:36;;;;;;;;;;;;;;;;;;5076931;28;19917;-75
2022/05/26 16:03:22;;;;;;;;;;;;;;;;;;5092725;28;19916;-70
2022/05/26 16:06:08;;;;;;;;;;;;;;;;;;5094942;28;19935;-71
2022/05/26 16:08:53;;;;;;;;;;;;;;;;;;5095184;28;19916;-69
2022/05/26 16:11:38;;;;;;;;;;;;;;;;;;5092198;28;19985;-61
2022/05/26 16:14:24;;;;;;;;;;;;;;;;;;5092532;28;19952;-70
2022/05/26 16:17:09;;;;;;;;;;;;;;;;;;5093043;28;19918;-68
2022/05/26 16:19:55;;;;;;;;;;;;;;;;;;5112395;28;19991;-67
2022/05/26 16:22:40;;;;;;;;;;;;;;;;;;5112960;28;20003;-69
2022/05/26 16:25:26;;;;;;;;;;;;;;;;;;5112230;28;19922;-69
2022/05/26 16:28:11;;;;;;;;;;;;;;;;;;5112242;28;19916;-71
2022/05/26 16:30:57;;;;;;;;;;;;;;;;;;5112418;28;20166;-69
2022/05/26 16:33:42;;;;;;;;;;;;;;;;;;5112086;28;20014;-76
2022/05/26 16:36:40;;;;;;;;;;;;;;;;;;5112480;28;19935;-78
2022/05/26 16:39:25;;;;;;;;;;;;;;;;;;5120253;28;19961;-77
2022/05/26 16:42:11;;;;;;;;;;;;;;;;;;5097839;28;19916;-78
2022/05/26 16:44:56;;;;;;;;;;;;;;;;;;5110477;28;19965;-78
2022/05/26 16:47:42;;;;;;;;;;;;;;;;;;5092052;28;20270;-71
2022/05/26 16:50:27;;;;;;;;;;;;;;;;;;5092367;28;19916;-74
2022/05/26 16:53:13;;;;;;;;;;;;;;;;;;5093068;28;20427;-74
2022/05/26 16:55:58;;;;;;;;;;;;;;;;;;5095216;28;19916;-75
2022/05/26 16:58:44;;;;;;;;;;;;;;;;;;5096711;28;19920;-75
2022/05/26 17:01:30;;;;;;;;;;;;;;;;;;5096516;28;19963;-76
2022/05/26 17:04:17;;;;;;;;;;;;;;;;;;5096417;28;20349;-65
2022/05/26 17:07:02;;;;;;;;;;;;;;;;;;5095218;28;20032;-70
2022/05/26 17:09:47;;;;;;;;;;;;;;;;;;5097764;28;19939;-69
2022/05/26 17:21:46;;;;;;;;;;;;;;;;;;5115626;28;19916;-69
2022/05/26 17:24:31;;;;;;;;;;;;;;;;;;5116117;28;19962;-68
2022/05/26 17:27:17;;;;;;;;;;;;;;;;;;5115718;28;19961;-67
2022/05/26 17:30:02;;;;;;;;;;;;;;;;;;5115494;28;19920;-66
2022/05/26 17:32:48;;;;;;;;;;;;;;;;;;5115891;28;19923;-67
2022/05/26 17:35:33;;;;;;;;;;;;;;;;;;5115451;28;20426;-67
2022/05/26 17:38:19;;;;;;;;;;;;;;;;;;5115578;28;19926;-68
2022/05/26 17:41:04;;;;;;;;;;;;;;;;;;5115182;28;19915;-66
2022/05/26 17:43:50;;;;;;;;;;;;;;;;;;5123443;28;19915;-75
2022/05/26 17:46:35;;;;;;;;;;;;;;;;;;5100118;28;19963;-77
2022/05/26 17:49:21;;;;;;;;;;;;;;;;;;5095619;28;19939;-79
2022/05/26 17:52:06;;;;;;;;;;;;;;;;;;5095392;28;19920;-79
2022/05/26 17:54:51;;;;;;;;;;;;;;;;;;5095470;28;19916;-79
2022/05/26 17:57:37;;;;;;;;;;;;;;;;;;5095564;28;19912;-80
2022/05/26 18:03:26;;;;;;;;;;;;;;;;;;5095040;28;20267;-67
2022/05/26 18:06:12;;;;;;;;;;;;;;;;;;5094901;28;19949;-66
2022/05/26 18:08:57;;;;;;;;;;;;;;;;;;5095120;28;20320;-67
2022/05/26 18:11:43;;;;;;;;;;;;;;;;;;5094986;28;19916;-66
2022/05/26 18:14:28;;;;;;;;;;;;;;;;;;5099164;28;19912;-68
2022/05/26 18:17:14;;;;;;;;;;;;;;;;;;5113792;28;19923;-66
2022/05/26 18:19:59;;;;;;;;;;;;;;;;;;5115318;28;19919;-68
2022/05/26 18:22:45;;;;;;;;;;;;;;;;;;5114800;28;19916;-67
2022/05/26 18:25:30;;;;;;;;;;;;;;;;;;5114961;28;20377;-67
2022/05/26 18:28:16;;;;;;;;;;;;;;;;;;5114569;28;19916;-67
2022/05/26 18:31:01;;;;;;;;;;;;;;;;;;5114548;28;19923;-67
2022/05/26 18:33:48;;;;;;;;;;;;;;;;;;5114663;28;19923;-66
2022/05/26 18:36:34;;;;;;;;;;;;;;;;;;5114432;28;20078;-74
2022/05/26 18:39:20;;;;;;;;;;;;;;;;;;5114020;28;19990;-77
2022/05/26 18:42:07;;;;;;;;;;;;;;;;;;5100087;28;19969;-67
2022/05/26 18:44:54;;;;;;;;;;;;;;;;;;5113608;28;19931;-66
2022/05/26 18:47:39;;;;;;;;;;;;;;;;;;5086704;28;19916;-66
2022/05/26 18:50:24;;;;;;;;;;;;;;;;;;5094004;28;20263;-66
2022/05/26 18:53:10;;;;;;;;;;;;;;;;;;5094337;28;19965;-66
2022/05/26 18:55:55;;;;;;;;;;;;;;;;;;5094191;28;19922;-66
2022/05/26 18:58:41;;;;;;;;;;;;;;;;;;5094293;28;19923;-71
2022/05/26 19:01:26;;;;;;;;;;;;;;;;;;5094015;28;19916;-71
2022/05/26 19:04:12;;;;;;;;;;;;;;;;;;5094079;28;19977;-72
2022/05/26 19:06:57;;;;;;;;;;;;;;;;;;5093863;28;19923;-72
2022/05/26 19:09:43;;;;;;;;;;;;;;;;;;5094566;28;19912;-72
2022/05/26 19:12:28;;;;;;;;;;;;;;;;;;5094057;28;19924;-72
2022/05/26 19:15:14;;;;;;;;;;;;;;;;;;5092503;28;19920;-65
2022/05/26 19:18:09;;;;;;;;;;;;;;;;;;5075609;28;20223;-70
2022/05/26 19:20:55;;;;;;;;;;;;;;;;;;5076125;28;20003;-72
2022/05/26 19:23:40;;;;;;;;;;;;;;;;;;5072952;28;19959;-72
2022/05/26 19:26:26;;;;;;;;;;;;;;;;;;5072667;28;19912;-72
2022/05/26 19:29:11;;;;;;;;;;;;;;;;;;5072609;28;19917;-71
2022/05/26 19:31:57;;;;;;;;;;;;;;;;;;5072962;28;19912;-66
2022/05/26 19:34:42;;;;;;;;;;;;;;;;;;5072619;28;20275;-67
2022/05/26 19:37:28;;;;;;;;;;;;;;;;;;5073000;28;19913;-66
2022/05/26 19:40:13;;;;;;;;;;;;;;;;;;5072457;28;19924;-64
2022/05/26 19:42:59;;;;;;;;;;;;;;;;;;5072692;28;20340;-66
2022/05/26 19:45:44;;;;;;;;;;;;;;;;;;5080761;28;19923;-65